SBSM/RIA METAR and TAF weather

Enter ICAO airport designator
Station Type Date Time Source
SBSM METAR 2020/05/29 19:00 UTC NOAA

SBSM 291900Z 28005KT 260V320 CAVOK 26/10 Q1015


Station Type Date Time Source
SBSM Decoded METAR 2020/05/29 19:00 UTC NOAA

Santa Maria Aero-Porto , Brazil (SBSM) 29-43S 053-42W
May 29, 2020 - 03:00 PM EDT / 2020.05.29 1900 UTC
Wind: from the W (280 degrees) at 6 MPH (5 KT) (direction variable):0
Visibility: greater than 7 mile(s):0
Temperature: 78 F (26 C)
Dew Point: 50 F (10 C)
Relative Humidity: 36%
Pressure (altimeter): 29.97 in. Hg (1015 hPa)
ob: SBSM 291900Z 28005KT 260V320 CAVOK 26/10 Q1015
cycle: 19

Station Type Date Time Source
SBSM TAF 2020/05/29 18:42 UTC NOAA

TAF SBSM 291500Z 2918/3006 09005KT CAVOK TX23/2918Z TN11/3006Z
RMK PEQ

Example: see airport list